sensor_id;sensor_type;location;lat;lon;timestamp;P1;durP1;ratioP1;P2;durP2;ratioP2
71148;SDS011;59072;42.144;25.200;2024-02-14T00:01:25;3.03;;;1.48;;
71148;SDS011;59072;42.144;25.200;2024-02-14T00:03:50;3.20;;;1.60;;
71148;SDS011;59072;42.144;25.200;2024-02-14T00:06:16;1.70;;;1.20;;
71148;SDS011;59072;42.144;25.200;2024-02-14T00:08:41;2.92;;;1.52;;
71148;SDS011;59072;42.144;25.200;2024-02-14T00:11:06;2.17;;;1.40;;
71148;SDS011;59072;42.144;25.200;2024-02-14T00:13:32;2.45;;;1.52;;
71148;SDS011;59072;42.144;25.200;2024-02-14T00:15:59;2.88;;;1.60;;
71148;SDS011;59072;42.144;25.200;2024-02-14T00:18:25;3.25;;;1.70;;
71148;SDS011;59072;42.144;25.200;2024-02-14T00:20:51;2.85;;;1.33;;
71148;SDS011;59072;42.144;25.200;2024-02-14T00:23:16;2.65;;;1.65;;
71148;SDS011;59072;42.144;25.200;2024-02-14T00:25:41;2.15;;;1.42;;
71148;SDS011;59072;42.144;25.200;2024-02-14T00:28:07;2.60;;;1.58;;
71148;SDS011;59072;42.144;25.200;2024-02-14T00:30:32;3.05;;;1.50;;
71148;SDS011;59072;42.144;25.200;2024-02-14T00:32:58;2.33;;;1.50;;
71148;SDS011;59072;42.144;25.200;2024-02-14T00:35:23;2.25;;;1.60;;
71148;SDS011;59072;42.144;25.200;2024-02-14T00:37:49;1.85;;;1.40;;
71148;SDS011;59072;42.144;25.200;2024-02-14T00:40:14;2.63;;;1.55;;
71148;SDS011;59072;42.144;25.200;2024-02-14T00:42:40;3.30;;;1.75;;
71148;SDS011;59072;42.144;25.200;2024-02-14T00:45:06;2.65;;;1.15;;
71148;SDS011;59072;42.144;25.200;2024-02-14T00:47:34;4.78;;;2.17;;
71148;SDS011;59072;42.144;25.200;2024-02-14T00:49:59;3.05;;;1.33;;
71148;SDS011;59072;42.144;25.200;2024-02-14T00:52:25;3.70;;;1.70;;
71148;SDS011;59072;42.144;25.200;2024-02-14T00:54:50;2.03;;;1.50;;
71148;SDS011;59072;42.144;25.200;2024-02-14T00:57:16;2.92;;;1.50;;
71148;SDS011;59072;42.144;25.200;2024-02-14T00:59:43;5.75;;;2.10;;
71148;SDS011;59072;42.144;25.200;2024-02-14T01:02:08;2.97;;;1.30;;
71148;SDS011;59072;42.144;25.200;2024-02-14T01:04:33;4.20;;;1.83;;
71148;SDS011;59072;42.144;25.200;2024-02-14T01:07:01;2.47;;;1.30;;
71148;SDS011;59072;42.144;25.200;2024-02-14T01:09:27;1.67;;;1.23;;
71148;SDS011;59072;42.144;25.200;2024-02-14T01:11:53;3.03;;;2.00;;
71148;SDS011;59072;42.144;25.200;2024-02-14T01:14:18;3.00;;;1.60;;
71148;SDS011;59072;42.144;25.200;2024-02-14T01:16:44;1.90;;;1.42;;
71148;SDS011;59072;42.144;25.200;2024-02-14T01:19:10;2.40;;;1.15;;
71148;SDS011;59072;42.144;25.200;2024-02-14T01:21:36;1.30;;;1.10;;
71148;SDS011;59072;42.144;25.200;2024-02-14T01:24:01;2.78;;;1.48;;
71148;SDS011;59072;42.144;25.200;2024-02-14T01:26:27;2.38;;;1.60;;
71148;SDS011;59072;42.144;25.200;2024-02-14T01:28:52;2.33;;;1.80;;
71148;SDS011;59072;42.144;25.200;2024-02-14T01:31:18;2.13;;;1.52;;
71148;SDS011;59072;42.144;25.200;2024-02-14T01:33:45;2.00;;;1.40;;
71148;SDS011;59072;42.144;25.200;2024-02-14T01:36:11;2.45;;;1.60;;
71148;SDS011;59072;42.144;25.200;2024-02-14T01:38:36;2.03;;;1.42;;
71148;SDS011;59072;42.144;25.200;2024-02-14T01:41:02;2.50;;;1.70;;
71148;SDS011;59072;42.144;25.200;2024-02-14T01:43:28;2.35;;;1.52;;
71148;SDS011;59072;42.144;25.200;2024-02-14T01:45:55;2.28;;;1.60;;
71148;SDS011;59072;42.144;25.200;2024-02-14T01:48:28;2.78;;;1.83;;
71148;SDS011;59072;42.144;25.200;2024-02-14T01:50:53;2.05;;;1.52;;
71148;SDS011;59072;42.144;25.200;2024-02-14T01:53:19;2.63;;;1.73;;
71148;SDS011;59072;42.144;25.200;2024-02-14T01:55:45;2.92;;;1.63;;
71148;SDS011;59072;42.144;25.200;2024-02-14T01:58:10;1.95;;;1.35;;
71148;SDS011;59072;42.144;25.200;2024-02-14T02:00:36;3.50;;;1.65;;
71148;SDS011;59072;42.144;25.200;2024-02-14T02:03:02;3.03;;;1.80;;
71148;SDS011;59072;42.144;25.200;2024-02-14T02:05:29;2.63;;;1.60;;
71148;SDS011;59072;42.144;25.200;2024-02-14T02:07:54;3.28;;;1.73;;
71148;SDS011;59072;42.144;25.200;2024-02-14T02:10:20;3.08;;;2.10;;
71148;SDS011;59072;42.144;25.200;2024-02-14T02:12:47;2.90;;;1.63;;
71148;SDS011;59072;42.144;25.200;2024-02-14T02:15:13;4.38;;;2.10;;
71148;SDS011;59072;42.144;25.200;2024-02-14T02:17:39;3.00;;;1.80;;
71148;SDS011;59072;42.144;25.200;2024-02-14T02:20:07;2.20;;;1.55;;
71148;SDS011;59072;42.144;25.200;2024-02-14T02:22:34;2.25;;;1.45;;
71148;SDS011;59072;42.144;25.200;2024-02-14T02:25:03;3.53;;;2.05;;
71148;SDS011;59072;42.144;25.200;2024-02-14T02:27:32;2.55;;;1.58;;
71148;SDS011;59072;42.144;25.200;2024-02-14T02:30:03;3.45;;;2.00;;
71148;SDS011;59072;42.144;25.200;2024-02-14T02:32:30;3.25;;;1.65;;
71148;SDS011;59072;42.144;25.200;2024-02-14T02:34:55;2.72;;;1.65;;
71148;SDS011;59072;42.144;25.200;2024-02-14T02:37:21;2.97;;;1.70;;
71148;SDS011;59072;42.144;25.200;2024-02-14T02:39:46;2.83;;;1.63;;
71148;SDS011;59072;42.144;25.200;2024-02-14T02:42:12;2.92;;;2.13;;
71148;SDS011;59072;42.144;25.200;2024-02-14T02:44:39;2.97;;;1.90;;
71148;SDS011;59072;42.144;25.200;2024-02-14T02:47:04;3.30;;;2.03;;
71148;SDS011;59072;42.144;25.200;2024-02-14T02:49:30;3.20;;;2.03;;
71148;SDS011;59072;42.144;25.200;2024-02-14T02:51:55;3.92;;;2.15;;
71148;SDS011;59072;42.144;25.200;2024-02-14T02:54:21;3.72;;;2.08;;
71148;SDS011;59072;42.144;25.200;2024-02-14T02:56:48;3.05;;;1.92;;
71148;SDS011;59072;42.144;25.200;2024-02-14T02:59:14;3.85;;;1.98;;
71148;SDS011;59072;42.144;25.200;2024-02-14T03:01:41;3.30;;;2.00;;
71148;SDS011;59072;42.144;25.200;2024-02-14T03:04:07;3.63;;;2.25;;
71148;SDS011;59072;42.144;25.200;2024-02-14T03:06:33;3.58;;;2.17;;
71148;SDS011;59072;42.144;25.200;2024-02-14T03:08:58;5.55;;;2.80;;
71148;SDS011;59072;42.144;25.200;2024-02-14T03:11:24;4.53;;;2.35;;
71148;SDS011;59072;42.144;25.200;2024-02-14T03:13:52;4.68;;;2.88;;
71148;SDS011;59072;42.144;25.200;2024-02-14T03:16:18;5.35;;;2.20;;
71148;SDS011;59072;42.144;25.200;2024-02-14T03:18:44;4.13;;;2.30;;
71148;SDS011;59072;42.144;25.200;2024-02-14T03:21:09;4.97;;;2.40;;
71148;SDS011;59072;42.144;25.200;2024-02-14T03:23:37;3.67;;;2.17;;
71148;SDS011;59072;42.144;25.200;2024-02-14T03:26:02;3.58;;;2.40;;
71148;SDS011;59072;42.144;25.200;2024-02-14T03:28:32;4.60;;;2.67;;
71148;SDS011;59072;42.144;25.200;2024-02-14T03:30:58;2.97;;;1.90;;
71148;SDS011;59072;42.144;25.200;2024-02-14T03:33:23;3.80;;;2.17;;
71148;SDS011;59072;42.144;25.200;2024-02-14T03:35:49;3.53;;;2.20;;
71148;SDS011;59072;42.144;25.200;2024-02-14T03:38:24;4.00;;;2.40;;
71148;SDS011;59072;42.144;25.200;2024-02-14T03:40:50;3.15;;;2.10;;
71148;SDS011;59072;42.144;25.200;2024-02-14T03:43:16;4.93;;;2.53;;
71148;SDS011;59072;42.144;25.200;2024-02-14T03:45:41;4.22;;;2.67;;
71148;SDS011;59072;42.144;25.200;2024-02-14T03:48:06;4.65;;;2.40;;
71148;SDS011;59072;42.144;25.200;2024-02-14T03:50:32;4.18;;;2.45;;
71148;SDS011;59072;42.144;25.200;2024-02-14T03:52:57;4.45;;;2.42;;
71148;SDS011;59072;42.144;25.200;2024-02-14T03:55:23;5.10;;;2.60;;
71148;SDS011;59072;42.144;25.200;2024-02-14T03:57:49;4.95;;;2.50;;
71148;SDS011;59072;42.144;25.200;2024-02-14T04:00:16;4.35;;;2.60;;
71148;SDS011;59072;42.144;25.200;2024-02-14T04:02:41;4.95;;;2.45;;
71148;SDS011;59072;42.144;25.200;2024-02-14T04:05:07;4.18;;;2.40;;
71148;SDS011;59072;42.144;25.200;2024-02-14T04:07:33;4.43;;;2.58;;
71148;SDS011;59072;42.144;25.200;2024-02-14T04:10:02;4.15;;;2.40;;
71148;SDS011;59072;42.144;25.200;2024-02-14T04:12:28;4.65;;;2.53;;
71148;SDS011;59072;42.144;25.200;2024-02-14T04:14:53;6.00;;;2.88;;
71148;SDS011;59072;42.144;25.200;2024-02-14T04:17:19;5.38;;;2.92;;
71148;SDS011;59072;42.144;25.200;2024-02-14T04:19:44;5.47;;;2.83;;
71148;SDS011;59072;42.144;25.200;2024-02-14T04:22:10;5.18;;;2.70;;
71148;SDS011;59072;42.144;25.200;2024-02-14T04:24:35;5.38;;;3.17;;
71148;SDS011;59072;42.144;25.200;2024-02-14T04:27:01;5.72;;;3.13;;
71148;SDS011;59072;42.144;25.200;2024-02-14T04:29:29;5.25;;;3.05;;
71148;SDS011;59072;42.144;25.200;2024-02-14T04:31:58;5.80;;;3.20;;
71148;SDS011;59072;42.144;25.200;2024-02-14T04:34:24;5.72;;;2.95;;
71148;SDS011;59072;42.144;25.200;2024-02-14T04:36:49;7.20;;;3.13;;
71148;SDS011;59072;42.144;25.200;2024-02-14T04:39:15;5.90;;;3.58;;
71148;SDS011;59072;42.144;25.200;2024-02-14T04:41:40;5.95;;;3.15;;
71148;SDS011;59072;42.144;25.200;2024-02-14T04:44:05;7.05;;;3.55;;
71148;SDS011;59072;42.144;25.200;2024-02-14T04:46:34;5.45;;;3.15;;
71148;SDS011;59072;42.144;25.200;2024-02-14T04:49:00;5.50;;;3.53;;
71148;SDS011;59072;42.144;25.200;2024-02-14T04:51:28;5.97;;;3.37;;
71148;SDS011;59072;42.144;25.200;2024-02-14T04:53:55;6.72;;;3.50;;
71148;SDS011;59072;42.144;25.200;2024-02-14T04:58:48;6.10;;;3.50;;
71148;SDS011;59072;42.144;25.200;2024-02-14T05:01:14;6.25;;;3.83;;
71148;SDS011;59072;42.144;25.200;2024-02-14T05:03:40;7.10;;;3.97;;
71148;SDS011;59072;42.144;25.200;2024-02-14T05:06:05;7.82;;;4.32;;
71148;SDS011;59072;42.144;25.200;2024-02-14T05:08:31;6.93;;;4.10;;
71148;SDS011;59072;42.144;25.200;2024-02-14T05:10:57;6.07;;;3.38;;
71148;SDS011;59072;42.144;25.200;2024-02-14T05:13:22;6.72;;;3.88;;
71148;SDS011;59072;42.144;25.200;2024-02-14T05:15:48;6.30;;;3.92;;
71148;SDS011;59072;42.144;25.200;2024-02-14T05:18:15;7.60;;;4.22;;
71148;SDS011;59072;42.144;25.200;2024-02-14T05:20:41;6.85;;;3.60;;
71148;SDS011;59072;42.144;25.200;2024-02-14T05:23:07;6.70;;;3.90;;
71148;SDS011;59072;42.144;25.200;2024-02-14T05:25:33;7.38;;;3.80;;
71148;SDS011;59072;42.144;25.200;2024-02-14T05:27:58;6.40;;;3.70;;
71148;SDS011;59072;42.144;25.200;2024-02-14T05:30:24;7.07;;;3.67;;
71148;SDS011;59072;42.144;25.200;2024-02-14T05:32:49;7.38;;;4.22;;
71148;SDS011;59072;42.144;25.200;2024-02-14T05:35:17;6.78;;;3.67;;
71148;SDS011;59072;42.144;25.200;2024-02-14T05:37:43;6.97;;;3.78;;
71148;SDS011;59072;42.144;25.200;2024-02-14T05:40:08;7.80;;;4.85;;
71148;SDS011;59072;42.144;25.200;2024-02-14T05:42:34;7.22;;;4.50;;
71148;SDS011;59072;42.144;25.200;2024-02-14T05:44:59;7.53;;;4.40;;
71148;SDS011;59072;42.144;25.200;2024-02-14T05:47:25;10.13;;;6.80;;
71148;SDS011;59072;42.144;25.200;2024-02-14T05:49:51;9.38;;;5.68;;
71148;SDS011;59072;42.144;25.200;2024-02-14T05:52:16;9.13;;;6.68;;
71148;SDS011;59072;42.144;25.200;2024-02-14T05:54:43;13.65;;;8.60;;
71148;SDS011;59072;42.144;25.200;2024-02-14T05:57:08;27.17;;;17.58;;
71148;SDS011;59072;42.144;25.200;2024-02-14T05:59:34;12.77;;;10.35;;
71148;SDS011;59072;42.144;25.200;2024-02-14T06:01:59;6.85;;;4.63;;
71148;SDS011;59072;42.144;25.200;2024-02-14T06:04:27;8.00;;;4.43;;
71148;SDS011;59072;42.144;25.200;2024-02-14T06:06:53;8.70;;;4.80;;
71148;SDS011;59072;42.144;25.200;2024-02-14T06:09:18;7.40;;;5.47;;
71148;SDS011;59072;42.144;25.200;2024-02-14T06:11:44;6.85;;;3.90;;
71148;SDS011;59072;42.144;25.200;2024-02-14T06:14:09;7.30;;;4.50;;
71148;SDS011;59072;42.144;25.200;2024-02-14T06:16:35;7.00;;;4.03;;
71148;SDS011;59072;42.144;25.200;2024-02-14T06:19:00;7.45;;;4.30;;
71148;SDS011;59072;42.144;25.200;2024-02-14T06:21:26;8.40;;;4.88;;
71148;SDS011;59072;42.144;25.200;2024-02-14T06:23:52;7.07;;;4.57;;
71148;SDS011;59072;42.144;25.200;2024-02-14T06:26:18;7.53;;;4.90;;
71148;SDS011;59072;42.144;25.200;2024-02-14T06:28:46;6.53;;;4.22;;
71148;SDS011;59072;42.144;25.200;2024-02-14T06:31:11;7.90;;;4.32;;
71148;SDS011;59072;42.144;25.200;2024-02-14T06:33:37;7.57;;;4.47;;
71148;SDS011;59072;42.144;25.200;2024-02-14T06:36:02;8.48;;;4.75;;
71148;SDS011;59072;42.144;25.200;2024-02-14T06:38:28;10.52;;;5.80;;
71148;SDS011;59072;42.144;25.200;2024-02-14T06:40:54;8.02;;;5.40;;
71148;SDS011;59072;42.144;25.200;2024-02-14T06:43:19;11.27;;;6.47;;
71148;SDS011;59072;42.144;25.200;2024-02-14T06:45:45;9.15;;;5.65;;
71148;SDS011;59072;42.144;25.200;2024-02-14T06:48:10;9.07;;;5.80;;
71148;SDS011;59072;42.144;25.200;2024-02-14T06:50:36;10.18;;;6.78;;
71148;SDS011;59072;42.144;25.200;2024-02-14T06:53:01;11.43;;;6.85;;
71148;SDS011;59072;42.144;25.200;2024-02-14T06:55:27;11.95;;;6.78;;
71148;SDS011;59072;42.144;25.200;2024-02-14T06:57:53;14.82;;;9.45;;
71148;SDS011;59072;42.144;25.200;2024-02-14T07:00:19;14.05;;;9.52;;
71148;SDS011;59072;42.144;25.200;2024-02-14T07:02:45;9.98;;;6.45;;
71148;SDS011;59072;42.144;25.200;2024-02-14T07:05:13;10.70;;;6.60;;
71148;SDS011;59072;42.144;25.200;2024-02-14T07:07:39;12.15;;;6.70;;
71148;SDS011;59072;42.144;25.200;2024-02-14T07:10:05;13.35;;;6.95;;
71148;SDS011;59072;42.144;25.200;2024-02-14T07:12:32;11.20;;;6.55;;
71148;SDS011;59072;42.144;25.200;2024-02-14T07:14:57;12.88;;;8.13;;
71148;SDS011;59072;42.144;25.200;2024-02-14T07:17:23;11.85;;;7.38;;
71148;SDS011;59072;42.144;25.200;2024-02-14T07:19:48;20.75;;;12.77;;
71148;SDS011;59072;42.144;25.200;2024-02-14T07:22:15;16.67;;;10.63;;
71148;SDS011;59072;42.144;25.200;2024-02-14T07:24:41;21.08;;;12.80;;
71148;SDS011;59072;42.144;25.200;2024-02-14T07:27:08;20.00;;;11.18;;
71148;SDS011;59072;42.144;25.200;2024-02-14T07:29:33;12.43;;;7.78;;
71148;SDS011;59072;42.144;25.200;2024-02-14T07:32:01;13.07;;;7.38;;
71148;SDS011;59072;42.144;25.200;2024-02-14T07:34:27;16.20;;;9.27;;
71148;SDS011;59072;42.144;25.200;2024-02-14T07:36:52;16.38;;;8.57;;
71148;SDS011;59072;42.144;25.200;2024-02-14T07:39:18;35.13;;;19.23;;
71148;SDS011;59072;42.144;25.200;2024-02-14T07:41:43;18.20;;;10.60;;
71148;SDS011;59072;42.144;25.200;2024-02-14T07:44:09;20.88;;;11.20;;
71148;SDS011;59072;42.144;25.200;2024-02-14T07:46:34;20.65;;;11.50;;
71148;SDS011;59072;42.144;25.200;2024-02-14T07:49:00;21.00;;;10.82;;
71148;SDS011;59072;42.144;25.200;2024-02-14T07:51:25;15.35;;;9.48;;
71148;SDS011;59072;42.144;25.200;2024-02-14T07:53:51;17.85;;;9.68;;
71148;SDS011;59072;42.144;25.200;2024-02-14T07:56:16;21.95;;;11.10;;
71148;SDS011;59072;42.144;25.200;2024-02-14T07:58:43;17.20;;;10.63;;
71148;SDS011;59072;42.144;25.200;2024-02-14T08:01:09;17.20;;;9.80;;
71148;SDS011;59072;42.144;25.200;2024-02-14T08:03:34;18.25;;;10.18;;
71148;SDS011;59072;42.144;25.200;2024-02-14T08:05:59;14.20;;;7.38;;
71148;SDS011;59072;42.144;25.200;2024-02-14T08:08:27;15.00;;;9.15;;
71148;SDS011;59072;42.144;25.200;2024-02-14T08:10:52;13.90;;;8.57;;
71148;SDS011;59072;42.144;25.200;2024-02-14T08:13:18;13.07;;;8.02;;
71148;SDS011;59072;42.144;25.200;2024-02-14T08:15:43;17.45;;;10.30;;
71148;SDS011;59072;42.144;25.200;2024-02-14T08:18:09;15.25;;;8.82;;
71148;SDS011;59072;42.144;25.200;2024-02-14T08:20:34;14.23;;;9.13;;
71148;SDS011;59072;42.144;25.200;2024-02-14T08:22:59;20.42;;;11.05;;
71148;SDS011;59072;42.144;25.200;2024-02-14T08:25:25;20.55;;;11.50;;
71148;SDS011;59072;42.144;25.200;2024-02-14T08:27:51;14.75;;;9.45;;
71148;SDS011;59072;42.144;25.200;2024-02-14T08:30:17;23.02;;;14.05;;
71148;SDS011;59072;42.144;25.200;2024-02-14T08:32:44;30.35;;;14.90;;
71148;SDS011;59072;42.144;25.200;2024-02-14T08:35:12;19.45;;;11.15;;
71148;SDS011;59072;42.144;25.200;2024-02-14T08:37:38;13.90;;;9.02;;
71148;SDS011;59072;42.144;25.200;2024-02-14T08:40:05;15.45;;;9.55;;
71148;SDS011;59072;42.144;25.200;2024-02-14T08:42:33;16.63;;;9.43;;
71148;SDS011;59072;42.144;25.200;2024-02-14T08:44:59;17.10;;;9.70;;
71148;SDS011;59072;42.144;25.200;2024-02-14T08:47:24;13.93;;;9.45;;
71148;SDS011;59072;42.144;25.200;2024-02-14T08:49:51;15.77;;;9.85;;
71148;SDS011;59072;42.144;25.200;2024-02-14T08:52:17;12.15;;;7.93;;
71148;SDS011;59072;42.144;25.200;2024-02-14T08:54:43;12.15;;;8.13;;
71148;SDS011;59072;42.144;25.200;2024-02-14T08:57:09;18.95;;;9.85;;
71148;SDS011;59072;42.144;25.200;2024-02-14T08:59:34;13.40;;;9.02;;
71148;SDS011;59072;42.144;25.200;2024-02-14T09:02:00;12.68;;;7.75;;
71148;SDS011;59072;42.144;25.200;2024-02-14T09:04:25;12.88;;;8.52;;
71148;SDS011;59072;42.144;25.200;2024-02-14T09:06:52;11.43;;;7.15;;
71148;SDS011;59072;42.144;25.200;2024-02-14T09:09:17;12.88;;;7.65;;
71148;SDS011;59072;42.144;25.200;2024-02-14T09:11:44;11.68;;;6.97;;
71148;SDS011;59072;42.144;25.200;2024-02-14T09:14:11;11.57;;;6.68;;
71148;SDS011;59072;42.144;25.200;2024-02-14T09:16:37;14.40;;;7.35;;
71148;SDS011;59072;42.144;25.200;2024-02-14T09:19:02;11.85;;;7.32;;
71148;SDS011;59072;42.144;25.200;2024-02-14T09:21:30;11.15;;;7.35;;
71148;SDS011;59072;42.144;25.200;2024-02-14T09:23:56;11.57;;;7.85;;
71148;SDS011;59072;42.144;25.200;2024-02-14T09:26:21;10.88;;;6.82;;
71148;SDS011;59072;42.144;25.200;2024-02-14T09:28:48;11.02;;;6.60;;
71148;SDS011;59072;42.144;25.200;2024-02-14T09:31:17;15.02;;;9.27;;
71148;SDS011;59072;42.144;25.200;2024-02-14T09:33:44;17.60;;;9.98;;
71148;SDS011;59072;42.144;25.200;2024-02-14T09:36:12;10.60;;;6.63;;
71148;SDS011;59072;42.144;25.200;2024-02-14T09:38:39;15.52;;;10.02;;
71148;SDS011;59072;42.144;25.200;2024-02-14T09:41:06;10.80;;;6.93;;
71148;SDS011;59072;42.144;25.200;2024-02-14T09:43:55;10.70;;;6.68;;
71148;SDS011;59072;42.144;25.200;2024-02-14T09:46:21;10.98;;;7.07;;
71148;SDS011;59072;42.144;25.200;2024-02-14T09:48:50;10.23;;;6.47;;
71148;SDS011;59072;42.144;25.200;2024-02-14T09:51:17;10.00;;;6.40;;
71148;SDS011;59072;42.144;25.200;2024-02-14T09:53:43;10.18;;;5.22;;
71148;SDS011;59072;42.144;25.200;2024-02-14T09:56:09;12.25;;;6.10;;
71148;SDS011;59072;42.144;25.200;2024-02-14T09:58:36;8.75;;;5.60;;
71148;SDS011;59072;42.144;25.200;2024-02-14T10:01:02;10.02;;;6.28;;
71148;SDS011;59072;42.144;25.200;2024-02-14T10:03:27;10.45;;;6.22;;
71148;SDS011;59072;42.144;25.200;2024-02-14T10:05:53;8.13;;;5.03;;
71148;SDS011;59072;42.144;25.200;2024-02-14T10:08:19;9.45;;;5.55;;
71148;SDS011;59072;42.144;25.200;2024-02-14T10:13:15;10.95;;;6.28;;
71148;SDS011;59072;42.144;25.200;2024-02-14T10:15:41;11.30;;;7.25;;
71148;SDS011;59072;42.144;25.200;2024-02-14T10:18:06;12.15;;;7.18;;
71148;SDS011;59072;42.144;25.200;2024-02-14T10:20:34;13.88;;;7.88;;
71148;SDS011;59072;42.144;25.200;2024-02-14T10:23:06;11.13;;;6.60;;
71148;SDS011;59072;42.144;25.200;2024-02-14T10:25:36;11.88;;;7.35;;
71148;SDS011;59072;42.144;25.200;2024-02-14T10:28:06;12.82;;;7.95;;
71148;SDS011;59072;42.144;25.200;2024-02-14T10:30:33;11.88;;;7.50;;
71148;SDS011;59072;42.144;25.200;2024-02-14T10:33:01;11.77;;;7.50;;
71148;SDS011;59072;42.144;25.200;2024-02-14T10:35:28;10.43;;;6.78;;
71148;SDS011;59072;42.144;25.200;2024-02-14T10:37:56;10.52;;;6.35;;
71148;SDS011;59072;42.144;25.200;2024-02-14T10:40:27;11.45;;;7.28;;
71148;SDS011;59072;42.144;25.200;2024-02-14T10:42:54;9.52;;;6.72;;
71148;SDS011;59072;42.144;25.200;2024-02-14T10:45:23;11.50;;;6.78;;
71148;SDS011;59072;42.144;25.200;2024-02-14T10:47:52;10.88;;;7.70;;
71148;SDS011;59072;42.144;25.200;2024-02-14T10:50:19;11.25;;;7.57;;
71148;SDS011;59072;42.144;25.200;2024-02-14T10:52:46;12.63;;;8.63;;
71148;SDS011;59072;42.144;25.200;2024-02-14T10:55:13;12.10;;;7.78;;
71148;SDS011;59072;42.144;25.200;2024-02-14T10:57:41;10.80;;;7.15;;
71148;SDS011;59072;42.144;25.200;2024-02-14T11:00:09;11.57;;;7.40;;
71148;SDS011;59072;42.144;25.200;2024-02-14T11:02:39;11.20;;;7.57;;
71148;SDS011;59072;42.144;25.200;2024-02-14T11:05:05;10.20;;;6.78;;
71148;SDS011;59072;42.144;25.200;2024-02-14T11:07:32;10.00;;;6.75;;
71148;SDS011;59072;42.144;25.200;2024-02-14T11:12:32;11.27;;;7.55;;
71148;SDS011;59072;42.144;25.200;2024-02-14T11:15:00;10.63;;;7.35;;
71148;SDS011;59072;42.144;25.200;2024-02-14T11:17:26;11.95;;;7.88;;
71148;SDS011;59072;42.144;25.200;2024-02-14T11:19:52;10.45;;;6.78;;
71148;SDS011;59072;42.144;25.200;2024-02-14T11:22:19;10.43;;;7.10;;
71148;SDS011;59072;42.144;25.200;2024-02-14T11:24:45;11.07;;;7.28;;
71148;SDS011;59072;42.144;25.200;2024-02-14T11:27:11;12.35;;;8.05;;
71148;SDS011;59072;42.144;25.200;2024-02-14T11:29:40;12.18;;;7.78;;
71148;SDS011;59072;42.144;25.200;2024-02-14T11:32:17;11.07;;;6.70;;
71148;SDS011;59072;42.144;25.200;2024-02-14T11:34:43;12.25;;;7.78;;
71148;SDS011;59072;42.144;25.200;2024-02-14T11:37:09;13.68;;;8.68;;
71148;SDS011;59072;42.144;25.200;2024-02-14T11:39:34;12.25;;;8.00;;
71148;SDS011;59072;42.144;25.200;2024-02-14T11:42:00;9.57;;;6.45;;
71148;SDS011;59072;42.144;25.200;2024-02-14T11:44:26;8.93;;;5.78;;
71148;SDS011;59072;42.144;25.200;2024-02-14T11:46:51;9.38;;;5.93;;
71148;SDS011;59072;42.144;25.200;2024-02-14T11:49:17;9.05;;;5.85;;
71148;SDS011;59072;42.144;25.200;2024-02-14T11:51:43;8.57;;;5.85;;
71148;SDS011;59072;42.144;25.200;2024-02-14T11:54:09;8.88;;;5.40;;
71148;SDS011;59072;42.144;25.200;2024-02-14T11:56:37;10.25;;;6.40;;
71148;SDS011;59072;42.144;25.200;2024-02-14T11:59:04;9.15;;;5.90;;
71148;SDS011;59072;42.144;25.200;2024-02-14T12:01:31;9.40;;;6.03;;
71148;SDS011;59072;42.144;25.200;2024-02-14T12:04:02;9.88;;;6.43;;
71148;SDS011;59072;42.144;25.200;2024-02-14T12:06:34;9.57;;;5.78;;
71148;SDS011;59072;42.144;25.200;2024-02-14T12:09:01;8.32;;;6.40;;
71148;SDS011;59072;42.144;25.200;2024-02-14T12:11:33;11.60;;;7.18;;
71148;SDS011;59072;42.144;25.200;2024-02-14T12:14:02;11.05;;;6.80;;
71148;SDS011;59072;42.144;25.200;2024-02-14T12:16:29;11.25;;;6.22;;
71148;SDS011;59072;42.144;25.200;2024-02-14T12:19:08;9.48;;;6.50;;
71148;SDS011;59072;42.144;25.200;2024-02-14T12:21:41;10.68;;;6.90;;
71148;SDS011;59072;42.144;25.200;2024-02-14T12:24:09;11.70;;;7.72;;
71148;SDS011;59072;42.144;25.200;2024-02-14T12:26:35;10.40;;;7.18;;
71148;SDS011;59072;42.144;25.200;2024-02-14T12:29:02;10.95;;;6.75;;
71148;SDS011;59072;42.144;25.200;2024-02-14T12:31:32;10.15;;;6.22;;
71148;SDS011;59072;42.144;25.200;2024-02-14T12:33:58;13.40;;;8.77;;
71148;SDS011;59072;42.144;25.200;2024-02-14T12:36:26;12.85;;;8.20;;
71148;SDS011;59072;42.144;25.200;2024-02-14T12:38:53;9.73;;;6.13;;
71148;SDS011;59072;42.144;25.200;2024-02-14T12:41:19;8.77;;;4.65;;
71148;SDS011;59072;42.144;25.200;2024-02-14T12:43:45;8.35;;;4.55;;
71148;SDS011;59072;42.144;25.200;2024-02-14T12:46:10;6.68;;;4.25;;
71148;SDS011;59072;42.144;25.200;2024-02-14T12:48:36;5.60;;;3.55;;
71148;SDS011;59072;42.144;25.200;2024-02-14T12:51:01;7.00;;;4.03;;
71148;SDS011;59072;42.144;25.200;2024-02-14T12:53:26;6.78;;;4.03;;
71148;SDS011;59072;42.144;25.200;2024-02-14T12:55:52;7.47;;;4.10;;
71148;SDS011;59072;42.144;25.200;2024-02-14T12:58:18;6.78;;;3.95;;
71148;SDS011;59072;42.144;25.200;2024-02-14T13:00:43;8.10;;;4.32;;
71148;SDS011;59072;42.144;25.200;2024-02-14T13:03:09;6.95;;;4.60;;
71148;SDS011;59072;42.144;25.200;2024-02-14T13:05:36;9.77;;;6.93;;
71148;SDS011;59072;42.144;25.200;2024-02-14T13:08:02;11.90;;;6.80;;
71148;SDS011;59072;42.144;25.200;2024-02-14T13:10:28;11.05;;;8.07;;
71148;SDS011;59072;42.144;25.200;2024-02-14T13:12:54;14.35;;;7.38;;
71148;SDS011;59072;42.144;25.200;2024-02-14T13:15:19;12.98;;;6.85;;
71148;SDS011;59072;42.144;25.200;2024-02-14T13:17:45;9.80;;;6.55;;
71148;SDS011;59072;42.144;25.200;2024-02-14T13:20:11;11.32;;;6.57;;
71148;SDS011;59072;42.144;25.200;2024-02-14T13:22:36;11.18;;;6.57;;
71148;SDS011;59072;42.144;25.200;2024-02-14T13:25:02;10.65;;;6.82;;
71148;SDS011;59072;42.144;25.200;2024-02-14T13:27:28;11.38;;;6.90;;
71148;SDS011;59072;42.144;25.200;2024-02-14T13:29:53;9.40;;;6.80;;
71148;SDS011;59072;42.144;25.200;2024-02-14T13:32:19;10.07;;;7.30;;
71148;SDS011;59072;42.144;25.200;2024-02-14T13:34:44;10.90;;;6.68;;
71148;SDS011;59072;42.144;25.200;2024-02-14T13:37:10;11.73;;;7.15;;
71148;SDS011;59072;42.144;25.200;2024-02-14T13:39:35;11.30;;;6.70;;
71148;SDS011;59072;42.144;25.200;2024-02-14T13:42:01;11.63;;;6.38;;
71148;SDS011;59072;42.144;25.200;2024-02-14T13:44:27;9.20;;;6.32;;
71148;SDS011;59072;42.144;25.200;2024-02-14T13:46:53;9.88;;;6.90;;
71148;SDS011;59072;42.144;25.200;2024-02-14T13:49:18;10.68;;;6.95;;
71148;SDS011;59072;42.144;25.200;2024-02-14T13:54:16;8.73;;;6.05;;
71148;SDS011;59072;42.144;25.200;2024-02-14T13:56:42;8.55;;;5.55;;
71148;SDS011;59072;42.144;25.200;2024-02-14T13:59:08;8.90;;;5.18;;
71148;SDS011;59072;42.144;25.200;2024-02-14T14:01:33;7.93;;;5.88;;
71148;SDS011;59072;42.144;25.200;2024-02-14T14:03:59;10.43;;;5.45;;
71148;SDS011;59072;42.144;25.200;2024-02-14T14:06:24;9.25;;;5.55;;
71148;SDS011;59072;42.144;25.200;2024-02-14T14:08:50;10.27;;;6.03;;
71148;SDS011;59072;42.144;25.200;2024-02-14T14:11:16;10.07;;;6.57;;
71148;SDS011;59072;42.144;25.200;2024-02-14T14:13:42;12.15;;;7.25;;
71148;SDS011;59072;42.144;25.200;2024-02-14T14:16:07;9.50;;;6.10;;
71148;SDS011;59072;42.144;25.200;2024-02-14T14:18:33;9.30;;;6.22;;
71148;SDS011;59072;42.144;25.200;2024-02-14T14:20:59;9.38;;;6.30;;
71148;SDS011;59072;42.144;25.200;2024-02-14T14:23:25;15.13;;;10.73;;
71148;SDS011;59072;42.144;25.200;2024-02-14T14:25:50;8.38;;;5.90;;
71148;SDS011;59072;42.144;25.200;2024-02-14T14:28:16;9.02;;;6.40;;
71148;SDS011;59072;42.144;25.200;2024-02-14T14:30:42;8.05;;;5.63;;
71148;SDS011;59072;42.144;25.200;2024-02-14T14:33:07;8.88;;;5.70;;